Luckey, Ohio
Current Conditions -  °F | °C
As of 6:53 PM on Saturday 20 Dec 2014 (Local Time) from KTDZ Reporting Station
Overcast Overcast  
Wind Chill: 31°   Ceiling: 2800
Heat Index: 31°   Visibility: 8mi
Dew Point: 23°   Wind: 3mph
Humidity: 72%   Direction: 160°SSE
Pressure: 30.29"   Gusts: NA
Location:  41.45°N, 83.49°W
Report Text: KTDZ 202353Z AUTO 16003KT 8SM OVC028 M01/M05 A3029 RMK AO2 SLP265 T10061050 10000 21006 53008 TSNO
Loading
Personal Weather Stations






























Interactive Weather Map New forecast layout! Learn more

10-Day Weather Forecast

Advertisements
Track Severe Weather on mobile